Time,TemperatureF,DewpointF,PressureIn,WindDirection,WindDirectionDegrees,WindSpeedMPH,WindSpeedGustMPH,Humidity,HourlyPrecipIn,Conditions,Clouds,dailyrainin,SoftwareType,DateUTC
2013-03-11 00:03:00,28.9,23.2,30.04,NW,304,13.0,18.0,79,0.00,OVC,OVC,0.00,WeatherDisplay:10.37,2013-03-11 05:03:00,
2013-03-11 00:09:00,28.9,23.5,30.04,NW,315,6.0,9.0,80,0.00,OVC,OVC,0.00,WeatherDisplay:10.37,2013-03-11 05:09:00,
2013-03-11 00:15:00,28.8,23.4,30.04,NW,311,8.0,12.0,80,0.00,OVC,OVC,0.00,WeatherDisplay:10.37,2013-03-11 05:15:00,
2013-03-11 00:21:00,28.8,23.4,30.04,WNW,303,7.0,12.0,80,0.00,OVC,OVC,0.00,WeatherDisplay:10.37,2013-03-11 05:21:00,
2013-03-11 00:27:00,28.8,23.7,30.03,NW,312,7.0,15.0,81,0.00,OVC,OVC,0.00,WeatherDisplay:10.37,2013-03-11 05:27:00,
2013-03-11 00:33:00,28.8,23.7,30.03,WNW,294,8.0,12.0,81,0.00,OVC,OVC,0.00,WeatherDisplay:10.37,2013-03-11 05:33:00,
2013-03-11 00:39:00,28.8,23.7,30.02,NW,307,8.0,12.0,81,0.00,OVC,OVC,0.00,WeatherDisplay:10.37,2013-03-11 05:39:00,
2013-03-11 00:45:00,28.8,23.7,30.02,NW,308,9.0,13.0,81,0.00,OVC,OVC,0.00,WeatherDisplay:10.37,2013-03-11 05:45:00,
2013-03-11 00:51:00,28.9,23.8,30.03,NW,318,8.0,13.0,81,0.00,OVC,OVC,0.00,WeatherDisplay:10.37,2013-03-11 05:51:00,
2013-03-11 00:57:00,28.9,23.8,30.03,NW,306,8.0,12.0,81,0.00,OVC,OVC,0.00,WeatherDisplay:10.37,2013-03-11 05:57:00,
2013-03-11 01:03:00,28.9,24.1,30.02,NW,308,6.0,12.0,82,0.00,OVC,OVC,0.00,WeatherDisplay:10.37,2013-03-11 06:03:00,
2013-03-11 01:09:00,28.8,24.0,30.02,NW,309,6.0,9.0,82,0.00,OVC,OVC,0.00,WeatherDisplay:10.37,2013-03-11 06:09:00,
2013-03-11 01:15:00,28.8,24.0,30.02,NW,305,5.0,7.0,82,0.00,OVC,OVC,0.00,WeatherDisplay:10.37,2013-03-11 06:15:00,
2013-03-11 01:21:00,28.8,24.0,30.02,WNW,298,7.0,9.0,82,0.00,OVC,OVC,0.00,WeatherDisplay:10.37,2013-03-11 06:21:00,
2013-03-11 01:27:00,28.8,24.0,30.02,WNW,295,5.0,7.0,82,0.00,OVC,OVC,0.00,WeatherDisplay:10.37,2013-03-11 06:27:00,
2013-03-11 01:33:00,28.8,24.6,30.02,NW,309,8.0,12.0,84,0.00,OVC,OVC,0.00,WeatherDisplay:10.37,2013-03-11 06:33:00,
2013-03-11 01:39:00,28.8,24.0,30.01,NW,316,6.0,10.0,82,0.00,OVC,OVC,0.00,WeatherDisplay:10.37,2013-03-11 06:39:00,
2013-03-11 01:45:00,28.4,23.6,30.01,NW,310,8.0,12.0,82,0.00,OVC,OVC,0.00,WeatherDisplay:10.37,2013-03-11 06:45:00,
2013-03-11 01:51:00,28.2,22.8,30.01,NW,305,7.0,12.0,80,0.00,OVC,OVC,0.00,WeatherDisplay:10.37,2013-03-11 06:51:00,
2013-03-11 01:57:00,28.0,22.3,30.01,WNW,302,5.0,12.0,79,0.00,OVC,OVC,0.00,WeatherDisplay:10.37,2013-03-11 06:57:00,
2013-03-11 02:03:00,27.7,22.3,30.01,NW,306,5.0,9.0,80,0.00,BKN,BKN,0.00,WeatherDisplay:10.37,2013-03-11 07:03:00,
2013-03-11 02:09:00,27.5,22.1,30.01,NNW,335,6.0,13.0,80,0.00,BKN,BKN,0.00,WeatherDisplay:10.37,2013-03-11 07:09:00,
2013-03-11 02:15:00,27.3,22.2,30.01,NW,315,7.0,14.0,81,0.00,BKN,BKN,0.00,WeatherDisplay:10.37,2013-03-11 07:15:00,
2013-03-11 02:21:00,27.3,22.2,30.01,NW,306,7.0,8.0,81,0.00,BKN,BKN,0.00,WeatherDisplay:10.37,2013-03-11 07:21:00,
2013-03-11 02:27:00,27.1,22.3,30.00,NW,314,6.0,10.0,82,0.00,BKN,BKN,0.00,WeatherDisplay:10.37,2013-03-11 07:27:00,
2013-03-11 02:33:00,27.1,22.3,30.00,NW,315,7.0,14.0,82,0.00,BKN,BKN,0.00,WeatherDisplay:10.37,2013-03-11 07:33:00,
2013-03-11 02:39:00,27.1,22.3,30.00,WNW,300,9.0,9.0,82,0.00,BKN,BKN,0.00,WeatherDisplay:10.37,2013-03-11 07:39:00,
2013-03-11 02:45:00,27.1,22.0,30.00,WNW,294,8.0,16.0,81,0.00,BKN,BKN,0.00,WeatherDisplay:10.37,2013-03-11 07:45:00,
2013-03-11 02:51:00,27.1,22.0,30.00,WNW,303,10.0,12.0,81,0.00,BKN,BKN,0.00,WeatherDisplay:10.37,2013-03-11 07:51:00,
2013-03-11 02:57:00,27.1,22.0,30.00,WNW,302,7.0,8.0,81,0.00,BKN,BKN,0.00,WeatherDisplay:10.37,2013-03-11 07:57:00,
2013-03-11 03:03:00,27.1,22.0,30.00,WNW,297,8.0,10.0,81,0.00,BKN,BKN,0.00,WeatherDisplay:10.37,2013-03-11 08:03:00,
2013-03-11 03:09:00,27.1,22.0,30.00,WNW,296,8.0,12.0,81,0.00,BKN,BKN,0.00,WeatherDisplay:10.37,2013-03-11 08:09:00,
2013-03-11 03:15:00,27.1,21.7,29.99,WNW,301,16.0,20.0,80,0.00,BKN,BKN,0.00,WeatherDisplay:10.37,2013-03-11 08:15:00,
2013-03-11 03:21:00,26.8,21.2,29.99,WNW,294,9.0,15.0,79,0.00,BKN,BKN,0.00,WeatherDisplay:10.37,2013-03-11 08:21:00,
2013-03-11 03:27:00,26.8,21.2,30.00,WNW,299,7.0,17.0,79,0.00,BKN,BKN,0.00,WeatherDisplay:10.37,2013-03-11 08:27:00,
2013-03-11 03:33:00,26.6,21.0,30.00,WNW,300,9.0,15.0,79,0.00,BKN,BKN,0.00,WeatherDisplay:10.37,2013-03-11 08:33:00,
2013-03-11 03:39:00,26.5,21.2,29.99,NW,304,8.0,10.0,80,0.00,BKN,BKN,0.00,WeatherDisplay:10.37,2013-03-11 08:39:00,
2013-03-11 03:45:00,26.4,21.1,29.99,WNW,301,8.0,14.0,80,0.00,BKN,BKN,0.00,WeatherDisplay:10.37,2013-03-11 08:45:00,
2013-03-11 03:51:00,26.2,21.4,30.00,WNW,301,8.0,10.0,82,0.00,BKN,BKN,0.00,WeatherDisplay:10.37,2013-03-11 08:51:00,
2013-03-11 03:57:00,26.1,21.9,30.00,WNW,285,13.0,17.0,84,0.00,BKN,BKN,0.00,WeatherDisplay:10.37,2013-03-11 08:57:00,
2013-03-11 04:03:00,26.1,21.9,29.99,WNW,299,9.0,16.0,84,0.00,BKN,BKN,0.00,WeatherDisplay:10.37,2013-03-11 09:03:00,
2013-03-11 04:09:00,25.9,21.2,29.99,WNW,298,10.0,14.0,82,0.00,BKN,BKN,0.00,WeatherDisplay:10.37,2013-03-11 09:09:00,
2013-03-11 04:15:00,25.9,21.2,29.99,WNW,295,9.0,14.0,82,0.00,BKN,BKN,0.00,WeatherDisplay:10.37,2013-03-11 09:15:00,
2013-03-11 04:21:00,25.7,21.0,29.99,NW,308,12.0,19.0,82,0.00,BKN,BKN,0.00,WeatherDisplay:10.37,2013-03-11 09:21:00,
2013-03-11 04:27:00,25.5,21.3,29.99,NW,304,13.0,16.0,84,0.00,BKN,BKN,0.00,WeatherDisplay:10.37,2013-03-11 09:27:00,
2013-03-11 04:33:00,25.5,21.3,29.99,NW,306,9.0,14.0,84,0.00,BKN,BKN,0.00,WeatherDisplay:10.37,2013-03-11 09:33:00,
2013-03-11 04:39:00,25.5,21.3,29.99,NW,304,8.0,9.0,84,0.00,BKN,BKN,0.00,WeatherDisplay:10.37,2013-03-11 09:39:00,
2013-03-11 04:45:00,25.5,21.6,29.99,WNW,303,9.0,13.0,85,0.00,BKN,BKN,0.00,WeatherDisplay:10.37,2013-03-11 09:45:00,
2013-03-11 04:51:00,25.3,21.4,29.99,NW,305,9.0,18.0,85,0.00,BKN,BKN,0.00,WeatherDisplay:10.37,2013-03-11 09:51:00,
2013-03-11 04:57:00,25.3,21.4,29.99,WNW,300,13.0,18.0,85,0.00,BKN,BKN,0.00,WeatherDisplay:10.37,2013-03-11 09:57:00,
2013-03-11 05:03:00,25.3,21.4,29.99,WNW,298,12.0,16.0,85,0.00,SCT,SCT,0.00,WeatherDisplay:10.37,2013-03-11 10:03:00,
2013-03-11 05:09:00,25.3,21.4,29.99,NW,306,10.0,14.0,85,0.00,SCT,SCT,0.00,WeatherDisplay:10.37,2013-03-11 10:09:00,
2013-03-11 05:15:00,25.2,21.3,29.99,NW,310,9.0,16.0,85,0.00,SCT,SCT,0.00,WeatherDisplay:10.37,2013-03-11 10:15:00,
2013-03-11 05:21:00,25.2,21.3,29.99,WNW,289,7.0,13.0,85,0.00,SCT,SCT,0.00,WeatherDisplay:10.37,2013-03-11 10:21:00,
2013-03-11 05:27:00,25.0,21.1,29.99,West,277,9.0,14.0,85,0.00,SCT,SCT,0.00,WeatherDisplay:10.37,2013-03-11 10:27:00,
2013-03-11 05:33:00,25.0,21.1,29.99,WNW,299,9.0,15.0,85,0.00,SCT,SCT,0.00,WeatherDisplay:10.37,2013-03-11 10:33:00,
2013-03-11 05:39:00,24.8,20.9,29.99,WNW,299,10.0,14.0,85,0.00,SCT,SCT,0.00,WeatherDisplay:10.37,2013-03-11 10:39:00,
2013-03-11 05:45:00,24.6,20.7,29.99,NW,309,12.0,19.0,85,0.00,SCT,SCT,0.00,WeatherDisplay:10.37,2013-03-11 10:45:00,
2013-03-11 05:51:00,24.4,20.5,29.98,NW,313,14.0,17.0,85,0.00,SCT,SCT,0.00,WeatherDisplay:10.37,2013-03-11 10:51:00,
2013-03-11 05:57:00,24.3,20.5,29.98,NW,314,12.0,14.0,85,0.00,SCT,SCT,0.00,WeatherDisplay:10.37,2013-03-11 10:57:00,
2013-03-11 06:03:00,24.3,20.7,29.99,WNW,297,10.0,13.0,86,0.00,FEW,FEW,0.00,WeatherDisplay:10.37,2013-03-11 11:03:00,
2013-03-11 06:09:00,24.1,20.5,29.99,WNW,295,13.0,16.0,86,0.00,FEW,FEW,0.00,WeatherDisplay:10.37,2013-03-11 11:09:00,
2013-03-11 06:15:00,24.1,20.5,29.99,WNW,302,13.0,19.0,86,0.00,FEW,FEW,0.00,WeatherDisplay:10.37,2013-03-11 11:15:00,
2013-03-11 06:21:00,23.9,20.3,29.99,NW,306,10.0,14.0,86,0.00,FEW,FEW,0.00,WeatherDisplay:10.37,2013-03-11 11:21:00,
2013-03-11 06:27:00,23.9,20.3,29.98,NW,304,9.0,15.0,86,0.00,FEW,FEW,0.00,WeatherDisplay:10.37,2013-03-11 11:27:00,
2013-03-11 06:33:00,23.7,20.1,29.98,NW,308,13.0,14.0,86,0.00,FEW,FEW,0.00,WeatherDisplay:10.37,2013-03-11 11:33:00,
2013-03-11 06:39:00,23.7,20.1,29.99,NW,306,12.0,15.0,86,0.00,FEW,FEW,0.00,WeatherDisplay:10.37,2013-03-11 11:39:00,
2013-03-11 06:45:00,23.7,20.1,29.99,WNW,298,14.0,19.0,86,0.00,FEW,FEW,0.00,WeatherDisplay:10.37,2013-03-11 11:45:00,
2013-03-11 06:51:00,23.7,20.1,29.99,WNW,297,13.0,13.0,86,0.00,FEW,FEW,0.00,WeatherDisplay:10.37,2013-03-11 11:51:00,
2013-03-11 06:57:00,23.7,20.1,29.99,West,280,15.0,15.0,86,0.00,FEW,FEW,0.00,WeatherDisplay:10.37,2013-03-11 11:57:00,
2013-03-11 07:03:00,23.7,20.1,29.99,WNW,282,8.0,15.0,86,0.00,FEW,FEW,0.00,WeatherDisplay:10.37,2013-03-11 12:03:00,
2013-03-11 07:09:00,23.7,20.1,29.99,WNW,298,13.0,15.0,86,0.00,FEW,FEW,0.00,WeatherDisplay:10.37,2013-03-11 12:09:00,
2013-03-11 07:15:00,23.5,19.9,29.99,WNW,297,8.0,16.0,86,0.00,FEW,FEW,0.00,WeatherDisplay:10.37,2013-03-11 12:15:00,
2013-03-11 07:21:00,23.4,19.8,29.99,WNW,298,10.0,17.0,86,0.00,FEW,FEW,0.00,WeatherDisplay:10.37,2013-03-11 12:21:00,
2013-03-11 07:27:00,23.4,19.8,30.00,WNW,300,10.0,14.0,86,0.00,FEW,FEW,0.00,WeatherDisplay:10.37,2013-03-11 12:27:00,
2013-03-11 07:33:00,23.4,19.8,30.00,NW,308,10.0,19.0,86,0.00,FEW,FEW,0.00,WeatherDisplay:10.37,2013-03-11 12:33:00,
2013-03-11 07:39:00,23.2,19.6,30.00,WNW,301,12.0,14.0,86,0.00,FEW,FEW,0.00,WeatherDisplay:10.37,2013-03-11 12:39:00,
2013-03-11 07:45:00,23.2,19.6,30.00,WNW,298,9.0,17.0,86,0.00,FEW,FEW,0.00,WeatherDisplay:10.37,2013-03-11 12:45:00,
2013-03-11 07:51:00,23.2,19.9,30.00,NW,304,10.0,12.0,87,0.00,FEW,FEW,0.00,WeatherDisplay:10.37,2013-03-11 12:51:00,
2013-03-11 07:57:00,23.0,19.7,30.00,WNW,294,8.0,10.0,87,0.00,FEW,FEW,0.00,WeatherDisplay:10.37,2013-03-11 12:57:00,
2013-03-11 08:03:00,23.0,19.7,30.00,NW,307,8.0,17.0,87,0.00,FEW,FEW,0.00,WeatherDisplay:10.37,2013-03-11 13:03:00,
2013-03-11 08:09:00,23.0,19.7,30.00,NW,308,8.0,12.0,87,0.00,FEW,FEW,0.00,WeatherDisplay:10.37,2013-03-11 13:09:00,
2013-03-11 08:15:00,23.0,19.7,30.00,NW,308,8.0,12.0,87,0.00,FEW,FEW,0.00,WeatherDisplay:10.37,2013-03-11 13:15:00,
2013-03-11 08:21:00,23.0,19.7,30.00,NW,308,10.0,12.0,87,0.00,FEW,FEW,0.00,WeatherDisplay:10.37,2013-03-11 13:21:00,
2013-03-11 08:27:00,23.2,19.9,30.01,NW,304,10.0,14.0,87,0.00,FEW,FEW,0.00,WeatherDisplay:10.37,2013-03-11 13:27:00,
2013-03-11 08:33:00,23.4,20.1,30.01,WNW,290,8.0,12.0,87,0.00,FEW,FEW,0.00,WeatherDisplay:10.37,2013-03-11 13:33:00,
2013-03-11 08:39:00,23.6,20.1,30.01,WNW,296,9.0,14.0,86,0.00,FEW,FEW,0.00,WeatherDisplay:10.37,2013-03-11 13:39:00,
2013-03-11 08:45:00,23.7,20.1,30.01,WNW,296,12.0,12.0,86,0.00,FEW,FEW,0.00,WeatherDisplay:10.37,2013-03-11 13:45:00,
2013-03-11 08:51:00,23.7,20.1,30.01,NW,304,12.0,12.0,86,0.00,FEW,FEW,0.00,WeatherDisplay:10.37,2013-03-11 13:51:00,
2013-03-11 08:57:00,24.3,19.6,30.02,NW,322,12.0,16.0,82,0.00,FEW,FEW,0.00,WeatherDisplay:10.37,2013-03-11 13:57:00,
2013-03-11 09:03:00,24.4,19.7,30.02,NW,311,14.0,21.0,82,0.00,CLR,CLR,0.00,WeatherDisplay:10.37,2013-03-11 14:03:00,
2013-03-11 09:09:00,24.6,19.6,30.02,WNW,301,12.0,20.0,81,0.00,CLR,CLR,0.00,WeatherDisplay:10.37,2013-03-11 14:09:00,
2013-03-11 09:15:00,25.2,19.9,30.02,WNW,302,8.0,15.0,80,0.00,CLR,CLR,0.00,WeatherDisplay:10.37,2013-03-11 14:15:00,
2013-03-11 09:21:00,25.2,19.6,30.02,WNW,300,15.0,23.0,79,0.00,CLR,CLR,0.00,WeatherDisplay:10.37,2013-03-11 14:21:00,
2013-03-11 09:27:00,25.3,19.4,30.03,NW,307,14.0,21.0,78,0.00,CLR,CLR,0.00,WeatherDisplay:10.37,2013-03-11 14:27:00,
2013-03-11 09:33:00,25.7,19.5,30.03,WNW,295,14.0,23.0,77,0.00,CLR,CLR,0.00,WeatherDisplay:10.37,2013-03-11 14:33:00,
2013-03-11 09:39:00,26.1,19.9,30.02,WNW,283,9.0,16.0,77,0.00,CLR,CLR,0.00,WeatherDisplay:10.37,2013-03-11 14:39:00,
2013-03-11 09:45:00,26.4,19.5,30.02,NW,307,9.0,15.0,75,0.00,CLR,CLR,0.00,WeatherDisplay:10.37,2013-03-11 14:45:00,
2013-03-11 09:51:00,26.6,19.7,30.03,WNW,302,9.0,9.0,75,0.00,CLR,CLR,0.00,WeatherDisplay:10.37,2013-03-11 14:51:00,
2013-03-11 09:57:00,26.8,20.0,30.03,WNW,290,12.0,19.0,75,0.00,CLR,CLR,0.00,WeatherDisplay:10.37,2013-03-11 14:57:00,
2013-03-11 10:03:00,27.0,19.5,30.03,WNW,290,13.0,16.0,73,0.00,FEW,FEW,0.00,WeatherDisplay:10.37,2013-03-11 15:03:00,
2013-03-11 10:09:00,27.3,19.5,30.03,NW,304,9.0,16.0,72,0.00,FEW,FEW,0.00,WeatherDisplay:10.37,2013-03-11 15:09:00,
2013-03-11 10:15:00,27.9,19.7,30.02,WNW,302,16.0,20.0,71,0.00,FEW,FEW,0.00,WeatherDisplay:10.37,2013-03-11 15:15:00,
2013-03-11 10:21:00,27.9,19.4,30.02,WNW,295,15.0,18.0,70,0.00,FEW,FEW,0.00,WeatherDisplay:10.37,2013-03-11 15:21:00,
2013-03-11 10:27:00,28.2,19.7,30.03,NW,314,10.0,13.0,70,0.00,FEW,FEW,0.00,WeatherDisplay:10.37,2013-03-11 15:27:00,
2013-03-11 10:33:00,29.1,19.9,30.03,NW,316,8.0,12.0,68,0.00,FEW,FEW,0.00,WeatherDisplay:10.37,2013-03-11 15:33:00,
2013-03-11 10:39:00,29.5,19.2,30.03,NW,312,10.0,14.0,65,0.00,FEW,FEW,0.00,WeatherDisplay:10.37,2013-03-11 15:39:00,
2013-03-11 10:45:00,29.8,18.7,30.03,NW,310,9.0,12.0,63,0.00,FEW,FEW,0.00,WeatherDisplay:10.37,2013-03-11 15:45:00,
2013-03-11 10:51:00,30.3,18.4,30.03,NW,318,9.0,14.0,61,0.00,FEW,FEW,0.00,WeatherDisplay:10.37,2013-03-11 15:51:00,
2013-03-11 10:57:00,30.9,18.6,30.03,NW,313,6.0,7.0,60,0.00,FEW,FEW,0.00,WeatherDisplay:10.37,2013-03-11 15:57:00,
2013-03-11 11:03:00,31.0,17.9,30.03,NW,312,10.0,14.0,58,0.00,FEW,FEW,0.00,WeatherDisplay:10.37,2013-03-11 16:03:00,
2013-03-11 11:09:00,31.4,18.3,30.03,NNW,338,7.0,9.0,58,0.00,FEW,FEW,0.00,WeatherDisplay:10.37,2013-03-11 16:09:00,
2013-03-11 11:15:00,31.9,18.4,30.03,NW,321,8.0,13.0,57,0.00,FEW,FEW,0.00,WeatherDisplay:10.37,2013-03-11 16:15:00,
2013-03-11 11:21:00,32.2,17.4,30.03,NW,322,10.0,14.0,54,0.00,FEW,FEW,0.00,WeatherDisplay:10.37,2013-03-11 16:21:00,
2013-03-11 11:27:00,33.3,18.0,30.03,NNW,327,7.0,14.0,53,0.00,FEW,FEW,0.00,WeatherDisplay:10.37,2013-03-11 16:27:00,
2013-03-11 11:33:00,33.5,18.2,30.03,WNW,295,9.0,19.0,53,0.00,FEW,FEW,0.00,WeatherDisplay:10.37,2013-03-11 16:33:00,
2013-03-11 11:39:00,33.4,17.2,30.03,WNW,289,10.0,15.0,51,0.00,FEW,FEW,0.00,WeatherDisplay:10.37,2013-03-11 16:39:00,
2013-03-11 11:45:00,33.8,17.6,30.03,WNW,285,8.0,14.0,51,0.00,FEW,FEW,0.00,WeatherDisplay:10.37,2013-03-11 16:45:00,
2013-03-11 11:51:00,33.3,17.6,30.02,West,274,9.0,14.0,52,0.00,FEW,FEW,0.00,WeatherDisplay:10.37,2013-03-11 16:51:00,
2013-03-11 11:57:00,33.6,17.8,30.02,WNW,289,12.0,13.0,52,0.00,FEW,FEW,0.00,WeatherDisplay:10.37,2013-03-11 16:57:00,
2013-03-11 12:03:00,34.4,18.1,30.03,NW,309,7.0,13.0,51,0.00,BKN,BKN,0.00,WeatherDisplay:10.37,2013-03-11 17:03:00,
2013-03-11 12:09:00,35.0,19.1,30.03,NW,309,12.0,16.0,52,0.00,BKN,BKN,0.00,WeatherDisplay:10.37,2013-03-11 17:09:00,
2013-03-11 12:15:00,36.4,19.5,30.01,NW,318,12.0,14.0,50,0.00,BKN,BKN,0.00,WeatherDisplay:10.37,2013-03-11 17:15:00,
2013-03-11 12:21:00,36.0,19.1,30.01,NW,322,6.0,9.0,50,0.00,BKN,BKN,0.00,WeatherDisplay:10.37,2013-03-11 17:21:00,
2013-03-11 12:27:00,36.0,20.1,30.01,WNW,302,8.0,14.0,52,0.00,BKN,BKN,0.00,WeatherDisplay:10.37,2013-03-11 17:27:00,
2013-03-11 12:33:00,35.8,19.0,30.01,WNW,300,8.0,10.0,50,0.00,BKN,BKN,0.00,WeatherDisplay:10.37,2013-03-11 17:33:00,
2013-03-11 12:39:00,35.8,19.4,30.01,NW,308,7.0,15.0,51,0.00,BKN,BKN,0.00,WeatherDisplay:10.37,2013-03-11 17:39:00,
2013-03-11 12:45:00,36.4,18.6,30.01,NW,306,9.0,14.0,48,0.00,BKN,BKN,0.00,WeatherDisplay:10.37,2013-03-11 17:45:00,
2013-03-11 12:51:00,37.5,19.6,30.01,NW,305,5.0,10.0,48,0.00,BKN,BKN,0.00,WeatherDisplay:10.37,2013-03-11 17:51:00,
2013-03-11 12:57:00,36.9,18.0,30.01,WNW,303,13.0,18.0,46,0.00,BKN,BKN,0.00,WeatherDisplay:10.37,2013-03-11 17:57:00,
2013-03-11 13:03:00,37.9,18.9,30.01,WNW,302,9.0,16.0,46,0.00,BKN,BKN,0.00,WeatherDisplay:10.37,2013-03-11 18:03:00,
2013-03-11 13:09:00,38.1,18.1,30.01,WNW,299,8.0,15.0,44,0.00,BKN,BKN,0.00,WeatherDisplay:10.37,2013-03-11 18:09:00,
2013-03-11 13:15:00,37.5,17.0,30.00,WNW,285,7.0,12.0,43,0.00,BKN,BKN,0.00,WeatherDisplay:10.37,2013-03-11 18:15:00,
2013-03-11 13:21:00,37.9,17.4,30.00,WNW,300,8.0,14.0,43,0.00,BKN,BKN,0.00,WeatherDisplay:10.37,2013-03-11 18:21:00,
2013-03-11 13:27:00,39.8,18.5,30.01,WNW,289,6.0,10.0,42,0.00,BKN,BKN,0.00,WeatherDisplay:10.37,2013-03-11 18:27:00,
2013-03-11 13:33:00,39.8,16.8,30.01,WNW,293,10.0,15.0,39,0.00,BKN,BKN,0.00,WeatherDisplay:10.37,2013-03-11 18:33:00,
2013-03-11 13:39:00,40.4,17.4,30.00,WNW,289,7.0,12.0,39,0.00,BKN,BKN,0.00,WeatherDisplay:10.37,2013-03-11 18:39:00,
2013-03-11 13:45:00,41.0,18.5,30.00,NW,306,6.0,9.0,40,0.00,BKN,BKN,0.00,WeatherDisplay:10.37,2013-03-11 18:45:00,
2013-03-11 13:51:00,41.9,18.1,30.00,WNW,302,9.0,15.0,38,0.00,BKN,BKN,0.00,WeatherDisplay:10.37,2013-03-11 18:51:00,
2013-03-11 13:57:00,42.7,18.8,30.00,NW,304,6.0,10.0,38,0.00,BKN,BKN,0.00,WeatherDisplay:10.37,2013-03-11 18:57:00,
2013-03-11 14:03:00,42.9,18.4,29.99,NW,307,10.0,17.0,37,0.00,BKN,BKN,0.00,WeatherDisplay:10.37,2013-03-11 19:03:00,
2013-03-11 14:09:00,43.0,19.1,29.99,WNW,299,7.0,10.0,38,0.00,BKN,BKN,0.00,WeatherDisplay:10.37,2013-03-11 19:09:00,
2013-03-11 14:15:00,43.4,18.2,30.00,NW,306,8.0,15.0,36,0.00,BKN,BKN,0.00,WeatherDisplay:10.37,2013-03-11 19:15:00,
2013-03-11 14:21:00,43.8,18.5,30.00,NW,307,6.0,12.0,36,0.00,BKN,BKN,0.00,WeatherDisplay:10.37,2013-03-11 19:21:00,
2013-03-11 14:27:00,42.8,18.3,29.99,WNW,295,10.0,13.0,37,0.00,BKN,BKN,0.00,WeatherDisplay:10.37,2013-03-11 19:27:00,
2013-03-11 14:33:00,45.0,19.6,29.99,WNW,296,7.0,9.0,36,0.00,BKN,BKN,0.00,WeatherDisplay:10.37,2013-03-11 19:33:00,
2013-03-11 14:39:00,43.5,19.5,29.98,WNW,299,8.0,13.0,38,0.00,BKN,BKN,0.00,WeatherDisplay:10.37,2013-03-11 19:39:00,
2013-03-11 14:45:00,44.1,18.2,29.98,WNW,293,7.0,9.0,35,0.00,BKN,BKN,0.00,WeatherDisplay:10.37,2013-03-11 19:45:00,
2013-03-11 14:51:00,45.8,21.0,29.98,West,278,10.0,14.0,37,0.00,BKN,BKN,0.00,WeatherDisplay:10.37,2013-03-11 19:51:00,
2013-03-11 14:57:00,45.9,19.8,29.98,WNW,286,6.0,12.0,35,0.00,BKN,BKN,0.00,WeatherDisplay:10.37,2013-03-11 19:57:00,
2013-03-11 15:03:00,45.5,18.7,29.97,WNW,289,10.0,14.0,34,0.00,SCT,SCT,0.00,WeatherDisplay:10.37,2013-03-11 20:03:00,
2013-03-11 15:09:00,45.2,19.1,29.97,WNW,288,9.0,13.0,35,0.00,SCT,SCT,0.00,WeatherDisplay:10.37,2013-03-11 20:09:00,
2013-03-11 15:15:00,44.4,17.1,29.97,WNW,290,9.0,19.0,33,0.00,SCT,SCT,0.00,WeatherDisplay:10.37,2013-03-11 20:15:00,
2013-03-11 15:21:00,47.2,19.5,29.97,WNW,300,7.0,9.0,33,0.00,SCT,SCT,0.00,WeatherDisplay:10.37,2013-03-11 20:21:00,
2013-03-11 15:27:00,46.8,19.2,29.97,WNW,301,9.0,12.0,33,0.00,SCT,SCT,0.00,WeatherDisplay:10.37,2013-03-11 20:27:00,
2013-03-11 15:33:00,47.5,19.8,29.97,WNW,299,9.0,15.0,33,0.00,SCT,SCT,0.00,WeatherDisplay:10.37,2013-03-11 20:33:00,
2013-03-11 15:39:00,47.2,19.5,29.97,WNW,290,5.0,12.0,33,0.00,SCT,SCT,0.00,WeatherDisplay:10.37,2013-03-11 20:39:00,
2013-03-11 15:45:00,46.6,18.3,29.97,WNW,293,10.0,13.0,32,0.00,SCT,SCT,0.00,WeatherDisplay:10.37,2013-03-11 20:45:00,
2013-03-11 15:51:00,46.5,19.6,29.97,WNW,297,7.0,14.0,34,0.00,SCT,SCT,0.00,WeatherDisplay:10.37,2013-03-11 20:51:00,
2013-03-11 15:57:00,47.7,19.9,29.97,WNW,286,9.0,10.0,33,0.00,SCT,SCT,0.00,WeatherDisplay:10.37,2013-03-11 20:57:00,
2013-03-11 16:03:00,48.0,20.2,29.97,WNW,303,6.0,16.0,33,0.00,SCT,SCT,0.00,WeatherDisplay:10.37,2013-03-11 21:03:00,
2013-03-11 16:09:00,46.7,17.6,29.97,WNW,303,9.0,15.0,31,0.00,SCT,SCT,0.00,WeatherDisplay:10.37,2013-03-11 21:09:00,
2013-03-11 16:15:00,46.9,18.6,29.96,WNW,289,7.0,12.0,32,0.00,SCT,SCT,0.00,WeatherDisplay:10.37,2013-03-11 21:15:00,
2013-03-11 16:21:00,48.5,18.5,29.96,WNW,288,9.0,13.0,30,0.00,SCT,SCT,0.00,WeatherDisplay:10.37,2013-03-11 21:21:00,
2013-03-11 16:27:00,47.3,17.4,29.96,NW,309,7.0,12.0,30,0.00,SCT,SCT,0.00,WeatherDisplay:10.37,2013-03-11 21:27:00,
2013-03-11 16:33:00,47.8,17.9,29.96,WNW,288,9.0,12.0,30,0.00,SCT,SCT,0.00,WeatherDisplay:10.37,2013-03-11 21:33:00,
2013-03-11 16:39:00,48.7,18.6,29.96,WNW,303,10.0,19.0,30,0.00,SCT,SCT,0.00,WeatherDisplay:10.37,2013-03-11 21:39:00,
2013-03-11 16:45:00,48.5,19.2,29.96,NW,311,9.0,14.0,31,0.00,SCT,SCT,0.00,WeatherDisplay:10.37,2013-03-11 21:45:00,
2013-03-11 16:51:00,47.9,18.7,29.96,WNW,297,10.0,18.0,31,0.00,SCT,SCT,0.00,WeatherDisplay:10.37,2013-03-11 21:51:00,
2013-03-11 16:57:00,46.9,18.6,29.96,West,270,7.0,13.0,32,0.00,SCT,SCT,0.00,WeatherDisplay:10.37,2013-03-11 21:57:00,
2013-03-11 17:03:00,47.3,18.9,29.96,WNW,284,10.0,13.0,32,0.00,BKN,BKN,0.00,WeatherDisplay:10.37,2013-03-11 22:03:00,
2013-03-11 17:09:00,47.4,20.4,29.96,WNW,296,10.0,12.0,34,0.00,BKN,BKN,0.00,WeatherDisplay:10.37,2013-03-11 22:09:00,
2013-03-11 17:15:00,47.5,20.5,29.95,WNW,294,9.0,14.0,34,0.00,BKN,BKN,0.00,WeatherDisplay:10.37,2013-03-11 22:15:00,
2013-03-11 17:21:00,48.4,21.2,29.95,WNW,303,9.0,10.0,34,0.00,BKN,BKN,0.00,WeatherDisplay:10.37,2013-03-11 22:21:00,
2013-03-11 17:27:00,47.4,21.7,29.95,WNW,303,10.0,14.0,36,0.00,BKN,BKN,0.00,WeatherDisplay:10.37,2013-03-11 22:27:00,
2013-03-11 17:33:00,47.7,21.3,29.95,WNW,300,8.0,15.0,35,0.00,BKN,BKN,0.00,WeatherDisplay:10.37,2013-03-11 22:33:00,
2013-03-11 17:39:00,47.8,21.5,29.95,WNW,296,9.0,14.0,35,0.00,BKN,BKN,0.00,WeatherDisplay:10.37,2013-03-11 22:39:00,
2013-03-11 17:45:00,48.0,21.6,29.95,WNW,295,8.0,10.0,35,0.00,BKN,BKN,0.00,WeatherDisplay:10.37,2013-03-11 22:45:00,
2013-03-11 17:51:00,48.1,21.7,29.96,WNW,290,7.0,10.0,35,0.00,BKN,BKN,0.00,WeatherDisplay:10.37,2013-03-11 22:51:00,
2013-03-11 17:57:00,48.0,21.6,29.96,WNW,292,7.0,14.0,35,0.00,BKN,BKN,0.00,WeatherDisplay:10.37,2013-03-11 22:57:00,
2013-03-11 18:03:00,48.2,21.8,29.96,WNW,303,5.0,10.0,35,0.00,BKN,BKN,0.00,WeatherDisplay:10.37,2013-03-11 23:03:00,
2013-03-11 18:09:00,48.2,23.1,29.96,NW,307,6.0,9.0,37,0.00,BKN,BKN,0.00,WeatherDisplay:10.37,2013-03-11 23:09:00,
2013-03-11 18:15:00,48.2,23.1,29.95,WNW,296,6.0,8.0,37,0.00,BKN,BKN,0.00,WeatherDisplay:10.37,2013-03-11 23:15:00,
2013-03-11 18:21:00,48.6,22.8,29.95,WNW,287,7.0,9.0,36,0.00,BKN,BKN,0.00,WeatherDisplay:10.37,2013-03-11 23:21:00,
2013-03-11 18:27:00,49.3,22.8,29.95,WNW,284,5.0,7.0,35,0.00,BKN,BKN,0.00,WeatherDisplay:10.37,2013-03-11 23:27:00,
2013-03-11 18:33:00,49.8,23.2,29.95,WNW,287,3.0,4.0,35,0.00,BKN,BKN,0.00,WeatherDisplay:10.37,2013-03-11 23:33:00,
2013-03-11 18:39:00,48.8,22.3,29.95,WNW,285,3.0,7.0,35,0.00,BKN,BKN,0.00,WeatherDisplay:10.37,2013-03-11 23:39:00,
2013-03-11 18:45:00,49.0,23.1,29.95,WNW,301,3.0,4.0,36,0.00,BKN,BKN,0.00,WeatherDisplay:10.37,2013-03-11 23:45:00,
2013-03-11 18:51:00,49.3,22.8,29.95,NW,304,2.0,6.0,35,0.00,BKN,BKN,0.00,WeatherDisplay:10.37,2013-03-11 23:51:00,
2013-03-11 18:57:00,49.8,23.2,29.95,WNW,303,5.0,6.0,35,0.00,BKN,BKN,0.00,WeatherDisplay:10.37,2013-03-11 23:57:00,
2013-03-11 19:03:00,49.7,22.4,29.97,NW,306,6.0,7.0,34,0.00,SCT,SCT,0.00,WeatherDisplay:10.37,2013-03-12 00:03:00,
2013-03-11 19:09:00,49.6,22.3,29.97,NNW,331,6.0,6.0,34,0.00,SCT,SCT,0.00,WeatherDisplay:10.37,2013-03-12 00:09:00,
2013-03-11 19:15:00,48.8,23.0,29.97,NNW,330,2.0,2.0,36,0.00,SCT,SCT,0.00,WeatherDisplay:10.37,2013-03-12 00:15:00,
2013-03-11 19:21:00,47.7,22.7,29.97,NW,315,0.0,0.0,37,0.00,SCT,SCT,0.00,WeatherDisplay:10.37,2013-03-12 00:21:00,
2013-03-11 19:27:00,47.7,22.7,29.97,NNW,338,0.0,0.0,37,0.00,SCT,SCT,0.00,WeatherDisplay:10.37,2013-03-12 00:27:00,
2013-03-11 19:33:00,46.9,22.6,29.97,NNW,338,0.0,0.0,38,0.00,SCT,SCT,0.00,WeatherDisplay:10.37,2013-03-12 00:33:00,
2013-03-11 19:39:00,46.0,23.0,29.98,NNW,338,0.0,0.0,40,0.00,SCT,SCT,0.00,WeatherDisplay:10.37,2013-03-12 00:39:00,
2013-03-11 19:45:00,45.2,22.9,29.98,NNW,338,0.0,0.0,41,0.00,SCT,SCT,0.00,WeatherDisplay:10.37,2013-03-12 00:45:00,
2013-03-11 19:51:00,44.2,22.5,29.98,NNW,338,0.0,0.0,42,0.00,SCT,SCT,0.00,WeatherDisplay:10.37,2013-03-12 00:51:00,
2013-03-11 19:57:00,43.9,22.8,29.98,NNW,338,0.0,0.0,43,0.00,SCT,SCT,0.00,WeatherDisplay:10.37,2013-03-12 00:57:00,
2013-03-11 20:03:00,43.2,22.2,29.98,NNW,338,0.0,0.0,43,0.00,BKN,BKN,0.00,WeatherDisplay:10.37,2013-03-12 01:03:00,
2013-03-11 20:09:00,42.4,23.0,29.98,NNW,338,0.0,0.0,46,0.00,BKN,BKN,0.00,WeatherDisplay:10.37,2013-03-12 01:09:00,
2013-03-11 20:15:00,41.7,22.4,29.98,NNW,338,0.0,0.0,46,0.00,BKN,BKN,0.00,WeatherDisplay:10.37,2013-03-12 01:15:00,
2013-03-11 20:21:00,41.3,23.0,29.98,NNW,338,0.0,0.0,48,0.00,BKN,BKN,0.00,WeatherDisplay:10.37,2013-03-12 01:21:00,
2013-03-11 20:27:00,40.8,22.6,29.99,NNW,338,0.0,0.0,48,0.00,BKN,BKN,0.00,WeatherDisplay:10.37,2013-03-12 01:27:00,
2013-03-11 20:33:00,40.3,23.6,29.99,NNW,338,0.0,0.0,51,0.00,BKN,BKN,0.00,WeatherDisplay:10.37,2013-03-12 01:33:00,
2013-03-11 20:39:00,40.1,23.9,29.99,NNW,338,0.0,0.0,52,0.00,BKN,BKN,0.00,WeatherDisplay:10.37,2013-03-12 01:39:00,
2013-03-11 20:45:00,39.4,23.2,29.99,NNW,338,0.0,0.0,52,0.00,BKN,BKN,0.00,WeatherDisplay:10.37,2013-03-12 01:45:00,
2013-03-11 20:51:00,38.9,22.8,29.99,NNW,338,0.0,0.0,52,0.00,BKN,BKN,0.00,WeatherDisplay:10.37,2013-03-12 01:51:00,
2013-03-11 20:57:00,38.5,23.3,29.99,NNW,338,0.0,0.0,54,0.00,BKN,BKN,0.00,WeatherDisplay:10.37,2013-03-12 01:57:00,
2013-03-11 21:03:00,37.9,23.2,29.99,NNW,338,0.0,0.0,55,0.00,BKN,BKN,0.00,WeatherDisplay:10.37,2013-03-12 02:03:00,
2013-03-11 21:09:00,37.6,23.3,29.99,NNW,338,0.0,0.0,56,0.00,BKN,BKN,0.00,WeatherDisplay:10.37,2013-03-12 02:09:00,
2013-03-11 21:15:00,37.4,24.0,30.00,NNW,338,0.0,0.0,58,0.00,BKN,BKN,0.00,WeatherDisplay:10.37,2013-03-12 02:15:00,
2013-03-11 21:21:00,37.0,24.4,30.00,NNW,338,0.0,0.0,60,0.00,BKN,BKN,0.00,WeatherDisplay:10.37,2013-03-12 02:21:00,
2013-03-11 21:27:00,36.9,24.3,30.00,NNW,338,0.0,0.0,60,0.00,BKN,BKN,0.00,WeatherDisplay:10.37,2013-03-12 02:27:00,
2013-03-11 21:33:00,36.9,23.9,30.00,NNW,338,0.0,0.0,59,0.00,BKN,BKN,0.00,WeatherDisplay:10.37,2013-03-12 02:33:00,
2013-03-11 21:39:00,36.5,23.9,30.00,NNW,338,0.0,0.0,60,0.00,BKN,BKN,0.00,WeatherDisplay:10.37,2013-03-12 02:39:00,
2013-03-11 21:45:00,36.9,25.5,30.00,NNW,338,0.0,0.0,63,0.00,BKN,BKN,0.00,WeatherDisplay:10.37,2013-03-12 02:45:00,
2013-03-11 21:51:00,37.0,25.6,30.00,NNW,338,0.0,0.0,63,0.00,BKN,BKN,0.00,WeatherDisplay:10.37,2013-03-12 02:51:00,
2013-03-11 21:57:00,36.5,26.9,30.00,NNW,338,0.0,0.0,68,0.00,BKN,BKN,0.00,WeatherDisplay:10.37,2013-03-12 02:57:00,
2013-03-11 22:03:00,36.1,26.9,30.00,NNW,338,0.0,0.0,69,0.00,SCT,SCT,0.00,WeatherDisplay:10.37,2013-03-12 03:03:00,
2013-03-11 22:09:00,35.8,26.6,30.00,NNW,338,0.0,0.0,69,0.00,SCT,SCT,0.00,WeatherDisplay:10.37,2013-03-12 03:09:00,
2013-03-11 22:15:00,37.0,24.4,30.00,NNW,338,0.0,0.0,60,0.00,SCT,SCT,0.00,WeatherDisplay:10.37,2013-03-12 03:15:00,
2013-03-11 22:21:00,36.9,25.1,30.00,NNW,338,0.0,0.0,62,0.00,SCT,SCT,0.00,WeatherDisplay:10.37,2013-03-12 03:21:00,
2013-03-11 22:27:00,36.9,25.1,30.00,NNW,338,0.0,0.0,62,0.00,SCT,SCT,0.00,WeatherDisplay:10.37,2013-03-12 03:27:00,
2013-03-11 22:33:00,37.2,24.6,30.00,NNW,338,0.0,0.0,60,0.00,SCT,SCT,0.00,WeatherDisplay:10.37,2013-03-12 03:33:00,
2013-03-11 22:39:00,36.9,25.5,30.01,NNW,338,0.0,0.0,63,0.00,SCT,SCT,0.00,WeatherDisplay:10.37,2013-03-12 03:39:00,
2013-03-11 22:45:00,36.9,25.9,30.01,NNW,338,0.0,0.0,64,0.00,SCT,SCT,0.00,WeatherDisplay:10.37,2013-03-12 03:45:00,
2013-03-11 22:51:00,37.2,26.1,30.00,NNW,338,0.0,0.0,64,0.00,SCT,SCT,0.00,WeatherDisplay:10.37,2013-03-12 03:51:00,
2013-03-11 22:57:00,37.2,26.1,30.00,NNW,338,0.0,0.0,64,0.00,SCT,SCT,0.00,WeatherDisplay:10.37,2013-03-12 03:57:00,
2013-03-11 23:00:00,37.4,26.3,30.00,NNW,338,0.0,0.0,64,0.00,SCT,SCT,0.00,WeatherDisplay:10.37,2013-03-12 04:00:00,
2013-03-11 23:03:00,37.4,26.7,30.00,NNW,338,0.0,0.0,65,0.00,BKN,BKN,0.00,WeatherDisplay:10.37,2013-03-12 04:03:00,
2013-03-11 23:06:00,37.4,26.3,30.00,NNW,338,0.0,0.0,64,0.00,BKN,BKN,0.00,WeatherDisplay:10.37,2013-03-12 04:06:00,
2013-03-11 23:12:00,37.7,26.2,30.00,NNW,338,0.0,0.0,63,0.00,BKN,BKN,0.00,WeatherDisplay:10.37,2013-03-12 04:12:00,
2013-03-11 23:18:00,37.8,25.9,30.01,NNW,338,0.0,0.0,62,0.00,BKN,BKN,0.00,WeatherDisplay:10.37,2013-03-12 04:18:00,
2013-03-11 23:24:00,37.8,25.9,30.01,NNW,338,0.0,0.0,62,0.00,BKN,BKN,0.00,WeatherDisplay:10.37,2013-03-12 04:24:00,
2013-03-11 23:27:00,37.8,25.9,30.00,NNW,338,0.0,0.0,62,0.00,BKN,BKN,0.00,WeatherDisplay:10.37,2013-03-12 04:27:00,
2013-03-11 23:33:00,37.8,25.9,30.00,NNW,338,0.0,0.0,62,0.00,BKN,BKN,0.00,WeatherDisplay:10.37,2013-03-12 04:33:00,
2013-03-11 23:39:00,38.5,26.6,30.00,NNW,338,0.0,0.0,62,0.00,BKN,BKN,0.00,WeatherDisplay:10.37,2013-03-12 04:39:00,
2013-03-11 23:45:00,39.1,27.6,30.00,NNW,338,0.0,0.0,63,0.00,BKN,BKN,0.00,WeatherDisplay:10.37,2013-03-12 04:45:00,
2013-03-11 23:51:00,39.4,27.5,30.01,NNW,338,0.0,0.0,62,0.00,BKN,BKN,0.00,WeatherDisplay:10.37,2013-03-12 04:51:00,
2013-03-11 23:57:00,39.2,28.0,30.01,NNW,338,0.0,0.0,64,0.00,BKN,BKN,0.00,WeatherDisplay:10.37,2013-03-12 04:57:00,